sensor_id;sensor_type;location;lat;lon;timestamp;pressure;altitude;pressure_sealevel;temperature;humidity
19594;BME280;9944;48.240;16.478;2023-11-21T00:02:13;99269.28;;;8.60;65.72
19594;BME280;9944;48.240;16.478;2023-11-21T00:06:16;99267.50;;;8.59;66.13
19594;BME280;9944;48.240;16.478;2023-11-21T00:10:20;99264.00;;;8.57;65.80
19594;BME280;9944;48.240;16.478;2023-11-21T00:14:23;99261.38;;;8.53;66.14
19594;BME280;9944;48.240;16.478;2023-11-21T00:18:27;99253.53;;;8.47;66.17
19594;BME280;9944;48.240;16.478;2023-11-21T00:22:30;99246.53;;;8.43;66.17
19594;BME280;9944;48.240;16.478;2023-11-21T00:26:34;99257.06;;;8.40;66.00
19594;BME280;9944;48.240;16.478;2023-11-21T00:30:39;99256.22;;;8.36;65.72
19594;BME280;9944;48.240;16.478;2023-11-21T00:34:44;99263.22;;;8.34;66.10
19594;BME280;9944;48.240;16.478;2023-11-21T00:38:47;99250.94;;;8.27;65.98
19594;BME280;9944;48.240;16.478;2023-11-21T00:42:51;99246.56;;;8.25;66.50
19594;BME280;9944;48.240;16.478;2023-11-21T00:46:53;99257.97;;;8.24;66.78
19594;BME280;9944;48.240;16.478;2023-11-21T00:50:59;99241.31;;;8.22;66.68
19594;BME280;9944;48.240;16.478;2023-11-21T00:55:02;99253.59;;;8.16;66.81
19594;BME280;9944;48.240;16.478;2023-11-21T00:59:06;99257.13;;;8.12;67.09
19594;BME280;9944;48.240;16.478;2023-11-21T01:03:09;99251.00;;;8.07;66.74
19594;BME280;9944;48.240;16.478;2023-11-21T01:07:13;99249.28;;;8.02;66.86
19594;BME280;9944;48.240;16.478;2023-11-21T01:11:16;99252.78;;;7.94;66.59
19594;BME280;9944;48.240;16.478;2023-11-21T01:15:19;99252.78;;;7.85;66.50
19594;BME280;9944;48.240;16.478;2023-11-21T01:19:22;99246.66;;;7.75;66.88
19594;BME280;9944;48.240;16.478;2023-11-21T01:23:27;99244.06;;;7.66;67.22
19594;BME280;9944;48.240;16.478;2023-11-21T01:27:31;99238.81;;;7.57;67.29
19594;BME280;9944;48.240;16.478;2023-11-21T01:31:34;99230.94;;;7.48;68.23
19594;BME280;9944;48.240;16.478;2023-11-21T01:35:37;99235.34;;;7.39;68.48
19594;BME280;9944;48.240;16.478;2023-11-21T01:39:42;99231.84;;;7.36;69.35
19594;BME280;9944;48.240;16.478;2023-11-21T01:43:45;99234.44;;;7.27;69.59
19594;BME280;9944;48.240;16.478;2023-11-21T01:47:49;99235.31;;;7.19;69.79
19594;BME280;9944;48.240;16.478;2023-11-21T01:51:54;99237.06;;;7.17;70.13
19594;BME280;9944;48.240;16.478;2023-11-21T01:55:59;99241.44;;;7.14;70.34
19594;BME280;9944;48.240;16.478;2023-11-21T02:00:03;99235.28;;;7.15;70.28
19594;BME280;9944;48.240;16.478;2023-11-21T02:04:18;99237.06;;;7.16;70.22
19594;BME280;9944;48.240;16.478;2023-11-21T02:08:21;99232.66;;;7.15;70.33
19594;BME280;9944;48.240;16.478;2023-11-21T02:12:26;99226.56;;;7.14;70.50
19594;BME280;9944;48.240;16.478;2023-11-21T02:16:29;99216.06;;;7.11;70.38
19594;BME280;9944;48.240;16.478;2023-11-21T02:20:33;99211.69;;;7.09;70.60
19594;BME280;9944;48.240;16.478;2023-11-21T02:24:41;99216.94;;;7.09;71.06
19594;BME280;9944;48.240;16.478;2023-11-21T02:28:45;99205.56;;;7.10;71.38
19594;BME280;9944;48.240;16.478;2023-11-21T02:32:48;99206.44;;;7.12;71.50
19594;BME280;9944;48.240;16.478;2023-11-21T02:36:52;99205.56;;;7.10;71.73
19594;BME280;9944;48.240;16.478;2023-11-21T02:40:57;99196.81;;;7.04;71.87
19594;BME280;9944;48.240;16.478;2023-11-21T02:45:02;99195.94;;;6.98;71.83
19594;BME280;9944;48.240;16.478;2023-11-21T02:49:05;99211.66;;;6.90;71.58
19594;BME280;9944;48.240;16.478;2023-11-21T02:53:09;99207.28;;;6.86;71.97
19594;BME280;9944;48.240;16.478;2023-11-21T02:57:14;99210.78;;;6.79;72.04
19594;BME280;9944;48.240;16.478;2023-11-21T03:01:17;99208.16;;;6.77;72.02
19594;BME280;9944;48.240;16.478;2023-11-21T03:05:20;99209.91;;;6.77;72.14
19594;BME280;9944;48.240;16.478;2023-11-21T03:09:24;99204.66;;;6.77;72.30
19594;BME280;9944;48.240;16.478;2023-11-21T03:13:29;99201.13;;;6.78;72.38
19594;BME280;9944;48.240;16.478;2023-11-21T03:17:33;99192.38;;;6.73;72.11
19594;BME280;9944;48.240;16.478;2023-11-21T03:21:37;99200.25;;;6.70;72.13
19594;BME280;9944;48.240;16.478;2023-11-21T03:25:41;99197.63;;;6.66;72.34
19594;BME280;9944;48.240;16.478;2023-11-21T03:29:45;99205.47;;;6.62;72.27
19594;BME280;9944;48.240;16.478;2023-11-21T03:33:51;99214.22;;;6.61;72.33
19594;BME280;9944;48.240;16.478;2023-11-21T03:37:55;99208.97;;;6.53;72.52
19594;BME280;9944;48.240;16.478;2023-11-21T03:41:59;99208.03;;;6.45;72.31
19594;BME280;9944;48.240;16.478;2023-11-21T03:46:04;99202.78;;;6.39;72.73
19594;BME280;9944;48.240;16.478;2023-11-21T03:50:08;99201.88;;;6.34;72.41
19594;BME280;9944;48.240;16.478;2023-11-21T03:54:11;99196.59;;;6.27;72.57
19594;BME280;9944;48.240;16.478;2023-11-21T03:58:16;99195.69;;;6.22;72.68
19594;BME280;9944;48.240;16.478;2023-11-21T04:02:21;99204.44;;;6.21;73.16
19594;BME280;9944;48.240;16.478;2023-11-21T04:06:24;99211.44;;;6.22;73.12
19594;BME280;9944;48.240;16.478;2023-11-21T04:10:28;99210.53;;;6.19;72.91
19594;BME280;9944;48.240;16.478;2023-11-21T04:14:32;99207.91;;;6.17;73.03
19594;BME280;9944;48.240;16.478;2023-11-21T04:18:37;99202.66;;;6.14;73.10
19594;BME280;9944;48.240;16.478;2023-11-21T04:22:42;99201.75;;;6.10;73.26
19594;BME280;9944;48.240;16.478;2023-11-21T04:26:46;99200.00;;;6.06;73.33
19594;BME280;9944;48.240;16.478;2023-11-21T04:30:50;99191.25;;;6.03;73.29
19594;BME280;9944;48.240;16.478;2023-11-21T04:34:54;99188.59;;;6.00;73.05
19594;BME280;9944;48.240;16.478;2023-11-21T04:38:58;99184.28;;;6.00;73.52
19594;BME280;9944;48.240;16.478;2023-11-21T04:43:01;99192.09;;;6.02;73.46
19594;BME280;9944;48.240;16.478;2023-11-21T04:47:06;99189.50;;;6.03;73.46
19594;BME280;9944;48.240;16.478;2023-11-21T04:51:11;99189.50;;;6.03;73.48
19594;BME280;9944;48.240;16.478;2023-11-21T04:55:15;99201.75;;;6.04;73.35
19594;BME280;9944;48.240;16.478;2023-11-21T04:59:18;99206.13;;;6.04;73.25
19594;BME280;9944;48.240;16.478;2023-11-21T05:03:21;99198.25;;;6.01;73.44
19594;BME280;9944;48.240;16.478;2023-11-21T05:07:27;99203.47;;;6.01;73.63
19594;BME280;9944;48.240;16.478;2023-11-21T05:11:33;99206.06;;;5.98;73.29
19594;BME280;9944;48.240;16.478;2023-11-21T05:15:36;99208.66;;;5.95;73.27
19594;BME280;9944;48.240;16.478;2023-11-21T05:19:40;99213.03;;;5.92;73.57
19594;BME280;9944;48.240;16.478;2023-11-21T05:23:45;99207.78;;;5.92;73.63
19594;BME280;9944;48.240;16.478;2023-11-21T05:27:48;99216.50;;;5.91;73.55
19594;BME280;9944;48.240;16.478;2023-11-21T05:31:51;99204.28;;;5.90;73.69
19594;BME280;9944;48.240;16.478;2023-11-21T05:35:55;99224.38;;;5.90;73.96
19594;BME280;9944;48.240;16.478;2023-11-21T05:39:59;99229.63;;;5.90;73.51
19594;BME280;9944;48.240;16.478;2023-11-21T05:44:07;99226.97;;;5.91;73.93
19594;BME280;9944;48.240;16.478;2023-11-21T05:48:11;99236.59;;;5.91;73.68
19594;BME280;9944;48.240;16.478;2023-11-21T05:52:14;99239.19;;;5.89;73.71
19594;BME280;9944;48.240;16.478;2023-11-21T05:56:19;99244.44;;;5.86;73.59
19594;BME280;9944;48.240;16.478;2023-11-21T06:00:23;99255.75;;;5.84;74.00
19594;BME280;9944;48.240;16.478;2023-11-21T06:04:27;99267.09;;;5.83;74.08
19594;BME280;9944;48.240;16.478;2023-11-21T06:08:30;99266.25;;;5.84;74.01
19594;BME280;9944;48.240;16.478;2023-11-21T06:12:34;99278.47;;;5.85;74.25
19594;BME280;9944;48.240;16.478;2023-11-21T06:16:37;99277.59;;;5.86;74.19
19594;BME280;9944;48.240;16.478;2023-11-21T06:20:42;99281.09;;;5.85;74.25
19594;BME280;9944;48.240;16.478;2023-11-21T06:24:45;99288.06;;;5.84;74.17
19594;BME280;9944;48.240;16.478;2023-11-21T06:28:50;99291.56;;;5.83;74.54
19594;BME280;9944;48.240;16.478;2023-11-21T06:32:54;99301.19;;;5.87;74.81
19594;BME280;9944;48.240;16.478;2023-11-21T06:36:58;99299.50;;;5.94;75.25
19594;BME280;9944;48.240;16.478;2023-11-21T06:41:01;99304.78;;;6.00;75.30
19594;BME280;9944;48.240;16.478;2023-11-21T06:45:08;99304.78;;;6.02;75.35
19594;BME280;9944;48.240;16.478;2023-11-21T06:49:13;99312.63;;;6.02;75.54
19594;BME280;9944;48.240;16.478;2023-11-21T06:53:17;99310.91;;;6.04;75.89
19594;BME280;9944;48.240;16.478;2023-11-21T06:57:22;99310.06;;;6.06;75.94
19594;BME280;9944;48.240;16.478;2023-11-21T07:01:27;99317.91;;;6.08;75.97
19594;BME280;9944;48.240;16.478;2023-11-21T07:05:30;99324.94;;;6.12;76.41
19594;BME280;9944;48.240;16.478;2023-11-21T07:09:33;99320.59;;;6.19;76.69
19594;BME280;9944;48.240;16.478;2023-11-21T07:13:37;99318.91;;;6.25;76.87
19594;BME280;9944;48.240;16.478;2023-11-21T07:17:41;99318.03;;;6.29;77.03
19594;BME280;9944;48.240;16.478;2023-11-21T07:22:26;99314.56;;;6.30;77.14
19594;BME280;9944;48.240;16.478;2023-11-21T07:26:30;99313.69;;;6.33;77.18
19594;BME280;9944;48.240;16.478;2023-11-21T07:30:33;99318.13;;;6.39;77.15
19594;BME280;9944;48.240;16.478;2023-11-21T07:34:37;99326.91;;;6.47;77.24
19594;BME280;9944;48.240;16.478;2023-11-21T07:38:41;99336.56;;;6.53;77.14
19594;BME280;9944;48.240;16.478;2023-11-21T07:42:45;99334.84;;;6.58;76.95
19594;BME280;9944;48.240;16.478;2023-11-21T07:46:50;99338.38;;;6.63;77.29
19594;BME280;9944;48.240;16.478;2023-11-21T07:50:56;99327.03;;;6.70;77.21
19594;BME280;9944;48.240;16.478;2023-11-21T07:55:00;99328.78;;;6.73;77.14
19594;BME280;9944;48.240;16.478;2023-11-21T07:59:03;99335.78;;;6.74;76.88
19594;BME280;9944;48.240;16.478;2023-11-21T08:03:07;99336.63;;;6.71;76.64
19594;BME280;9944;48.240;16.478;2023-11-21T08:07:12;99341.91;;;6.76;76.95
19594;BME280;9944;48.240;16.478;2023-11-21T08:11:15;99336.69;;;6.83;77.01
19594;BME280;9944;48.240;16.478;2023-11-21T08:15:20;99342.84;;;6.87;77.09
19594;BME280;9944;48.240;16.478;2023-11-21T08:19:23;99348.97;;;6.92;76.91
19594;BME280;9944;48.240;16.478;2023-11-21T08:23:29;99343.72;;;6.94;76.73
19594;BME280;9944;48.240;16.478;2023-11-21T08:27:32;99348.13;;;6.96;76.68
19594;BME280;9944;48.240;16.478;2023-11-21T08:31:35;99353.38;;;7.02;76.98
19594;BME280;9944;48.240;16.478;2023-11-21T08:35:39;99355.16;;;7.13;77.21
19594;BME280;9944;48.240;16.478;2023-11-21T08:39:44;99357.81;;;7.19;77.12
19594;BME280;9944;48.240;16.478;2023-11-21T08:43:48;99358.72;;;7.27;77.20
19594;BME280;9944;48.240;16.478;2023-11-21T08:47:52;99356.97;;;7.34;76.67
19594;BME280;9944;48.240;16.478;2023-11-21T08:51:55;99360.47;;;7.34;76.26
19594;BME280;9944;48.240;16.478;2023-11-21T08:56:02;99358.72;;;7.32;75.69
19594;BME280;9944;48.240;16.478;2023-11-21T09:00:07;99356.97;;;7.32;75.31
19594;BME280;9944;48.240;16.478;2023-11-21T09:04:14;99349.09;;;7.38;75.30
19594;BME280;9944;48.240;16.478;2023-11-21T09:08:17;99355.25;;;7.47;75.32
19594;BME280;9944;48.240;16.478;2023-11-21T09:12:21;99352.63;;;7.54;74.92
19594;BME280;9944;48.240;16.478;2023-11-21T09:16:26;99350.91;;;7.64;75.19
19594;BME280;9944;48.240;16.478;2023-11-21T09:20:30;99350.91;;;7.76;75.05
19594;BME280;9944;48.240;16.478;2023-11-21T09:24:33;99351.78;;;7.88;74.34
19594;BME280;9944;48.240;16.478;2023-11-21T09:28:40;99350.00;;;7.96;74.39
19594;BME280;9944;48.240;16.478;2023-11-21T09:32:48;99344.78;;;8.04;73.91
19594;BME280;9944;48.240;16.478;2023-11-21T09:36:52;99326.34;;;8.11;74.20
19594;BME280;9944;48.240;16.478;2023-11-21T09:40:55;99329.84;;;8.21;73.51
19594;BME280;9944;48.240;16.478;2023-11-21T09:45:05;99335.13;;;8.32;73.73
19594;BME280;9944;48.240;16.478;2023-11-21T09:49:09;99326.31;;;8.41;73.10
19594;BME280;9944;48.240;16.478;2023-11-21T09:53:17;99323.66;;;8.48;72.57
19594;BME280;9944;48.240;16.478;2023-11-21T09:57:23;99330.69;;;8.55;72.86
19594;BME280;9944;48.240;16.478;2023-11-21T10:01:28;99324.53;;;8.61;72.81
19594;BME280;9944;48.240;16.478;2023-11-21T10:05:32;99318.34;;;8.64;72.96
19594;BME280;9944;48.240;16.478;2023-11-21T10:09:36;99313.09;;;8.67;72.85
19594;BME280;9944;48.240;16.478;2023-11-21T10:13:40;99313.06;;;8.73;72.95
19594;BME280;9944;48.240;16.478;2023-11-21T10:17:46;99313.88;;;8.83;72.87
19594;BME280;9944;48.240;16.478;2023-11-21T10:21:51;99311.19;;;8.93;73.14
19594;BME280;9944;48.240;16.478;2023-11-21T10:25:57;99302.38;;;9.07;72.08
19594;BME280;9944;48.240;16.478;2023-11-21T10:30:11;99297.06;;;9.13;71.49
19594;BME280;9944;48.240;16.478;2023-11-21T10:34:18;99299.63;;;9.25;71.49
19594;BME280;9944;48.240;16.478;2023-11-21T10:38:22;99296.94;;;9.35;70.56
19594;BME280;9944;48.240;16.478;2023-11-21T10:42:26;99305.66;;;9.40;69.26
19594;BME280;9944;48.240;16.478;2023-11-21T10:46:30;99302.09;;;9.47;68.78
19594;BME280;9944;48.240;16.478;2023-11-21T10:50:35;99296.81;;;9.50;67.99
19594;BME280;9944;48.240;16.478;2023-11-21T10:54:39;99309.06;;;9.53;67.52
19594;BME280;9944;48.240;16.478;2023-11-21T10:58:42;99307.31;;;9.56;67.05
19594;BME280;9944;48.240;16.478;2023-11-21T11:02:46;99305.53;;;9.61;67.01
19594;BME280;9944;48.240;16.478;2023-11-21T11:06:55;99303.69;;;9.66;67.13
19594;BME280;9944;48.240;16.478;2023-11-21T11:10:59;99300.16;;;9.72;66.42
19594;BME280;9944;48.240;16.478;2023-11-21T11:15:04;99297.53;;;9.72;65.29
19594;BME280;9944;48.240;16.478;2023-11-21T11:19:07;99294.84;;;9.77;66.17
19594;BME280;9944;48.240;16.478;2023-11-21T11:23:30;99289.53;;;9.80;65.44
19594;BME280;9944;48.240;16.478;2023-11-21T11:27:44;99293.03;;;9.82;64.95
19594;BME280;9944;48.240;16.478;2023-11-21T11:31:58;99277.28;;;9.79;64.06
19594;BME280;9944;48.240;16.478;2023-11-21T11:36:10;99273.81;;;9.74;64.81
19594;BME280;9944;48.240;16.478;2023-11-21T11:40:19;99279.06;;;9.74;64.52
19594;BME280;9944;48.240;16.478;2023-11-21T11:44:53;99281.69;;;9.75;64.28
19594;BME280;9944;48.240;16.478;2023-11-21T11:49:02;99290.50;;;9.73;64.26
19594;BME280;9944;48.240;16.478;2023-11-21T11:53:13;99282.59;;;9.73;64.10
19594;BME280;9944;48.240;16.478;2023-11-21T11:57:19;99293.13;;;9.69;64.03
19594;BME280;9944;48.240;16.478;2023-11-21T12:01:27;99290.50;;;9.71;64.49
19594;BME280;9944;48.240;16.478;2023-11-21T12:05:32;99280.81;;;9.75;64.22
19594;BME280;9944;48.240;16.478;2023-11-21T12:09:37;99281.72;;;9.74;64.34
19594;BME280;9944;48.240;16.478;2023-11-21T12:13:42;99286.06;;;9.78;64.89
19594;BME280;9944;48.240;16.478;2023-11-21T12:17:47;99290.38;;;9.83;64.52
19594;BME280;9944;48.240;16.478;2023-11-21T12:21:51;99286.00;;;9.84;64.69
19594;BME280;9944;48.240;16.478;2023-11-21T12:25:54;99289.53;;;9.83;64.82
19594;BME280;9944;48.240;16.478;2023-11-21T12:29:59;99289.50;;;9.86;64.73
19594;BME280;9944;48.240;16.478;2023-11-21T12:34:02;99292.13;;;9.86;64.53
19594;BME280;9944;48.240;16.478;2023-11-21T12:38:07;99286.88;;;9.84;63.81
19594;BME280;9944;48.240;16.478;2023-11-21T12:42:11;99282.47;;;9.85;64.44
19594;BME280;9944;48.240;16.478;2023-11-21T12:46:17;99274.53;;;9.86;64.26
19594;BME280;9944;48.240;16.478;2023-11-21T12:50:20;99285.06;;;9.90;64.53
19594;BME280;9944;48.240;16.478;2023-11-21T12:54:25;99287.69;;;9.94;64.55
19594;BME280;9944;48.240;16.478;2023-11-21T12:58:29;99287.63;;;10.00;64.95
19594;BME280;9944;48.240;16.478;2023-11-21T13:02:33;99283.22;;;10.01;64.48
19594;BME280;9944;48.240;16.478;2023-11-21T13:06:40;99281.47;;;10.01;64.64
19594;BME280;9944;48.240;16.478;2023-11-21T13:10:45;99291.16;;;9.99;64.17
19594;BME280;9944;48.240;16.478;2023-11-21T13:14:49;99285.91;;;9.98;64.71
19594;BME280;9944;48.240;16.478;2023-11-21T13:18:54;99285.88;;;9.99;64.69
19594;BME280;9944;48.240;16.478;2023-11-21T13:22:57;99286.78;;;9.98;65.00
19594;BME280;9944;48.240;16.478;2023-11-21T13:27:02;99284.16;;;9.98;65.11
19594;BME280;9944;48.240;16.478;2023-11-21T13:31:05;99283.22;;;10.01;65.25
19594;BME280;9944;48.240;16.478;2023-11-21T13:35:25;99292.06;;;9.97;65.54
19594;BME280;9944;48.240;16.478;2023-11-21T13:39:34;99292.94;;;9.97;65.77
19594;BME280;9944;48.240;16.478;2023-11-21T13:43:39;99290.31;;;9.96;65.85
19594;BME280;9944;48.240;16.478;2023-11-21T13:47:45;99293.00;;;9.88;65.53
19594;BME280;9944;48.240;16.478;2023-11-21T13:51:50;99293.94;;;9.81;65.44
19594;BME280;9944;48.240;16.478;2023-11-21T13:55:56;99303.63;;;9.77;66.18
19594;BME280;9944;48.240;16.478;2023-11-21T14:00:01;99307.13;;;9.78;66.38
19594;BME280;9944;48.240;16.478;2023-11-21T14:04:05;99317.69;;;9.76;66.56
19594;BME280;9944;48.240;16.478;2023-11-21T14:08:22;99307.16;;;9.75;66.52
19594;BME280;9944;48.240;16.478;2023-11-21T14:12:30;99312.41;;;9.78;66.65
19594;BME280;9944;48.240;16.478;2023-11-21T14:16:40;99309.78;;;9.75;66.82
19594;BME280;9944;48.240;16.478;2023-11-21T14:20:44;99313.34;;;9.74;66.78
19594;BME280;9944;48.240;16.478;2023-11-21T14:24:49;99315.97;;;9.72;66.71
19594;BME280;9944;48.240;16.478;2023-11-21T14:28:54;99316.00;;;9.67;66.99
19594;BME280;9944;48.240;16.478;2023-11-21T14:32:59;99317.81;;;9.62;67.10
19594;BME280;9944;48.240;16.478;2023-11-21T14:37:03;99330.13;;;9.60;67.13
19594;BME280;9944;48.240;16.478;2023-11-21T14:41:08;99330.16;;;9.54;66.88
19594;BME280;9944;48.240;16.478;2023-11-21T14:45:13;99337.19;;;9.57;67.37
19594;BME280;9944;48.240;16.478;2023-11-21T14:49:21;99342.47;;;9.55;67.54
19594;BME280;9944;48.240;16.478;2023-11-21T14:53:27;99341.59;;;9.53;68.02
19594;BME280;9944;48.240;16.478;2023-11-21T14:57:46;99346.03;;;9.48;68.17
19594;BME280;9944;48.240;16.478;2023-11-21T15:01:52;99341.63;;;9.45;68.08
19594;BME280;9944;48.240;16.478;2023-11-21T15:05:58;99346.03;;;9.43;68.35
19594;BME280;9944;48.240;16.478;2023-11-21T15:10:11;99340.84;;;9.36;68.32
19594;BME280;9944;48.240;16.478;2023-11-21T15:14:19;99335.59;;;9.29;68.55
19594;BME280;9944;48.240;16.478;2023-11-21T15:18:26;99345.28;;;9.21;68.50
19594;BME280;9944;48.240;16.478;2023-11-21T15:22:31;99341.84;;;9.15;68.73
19594;BME280;9944;48.240;16.478;2023-11-21T15:26:34;99348.84;;;9.12;69.09
19594;BME280;9944;48.240;16.478;2023-11-21T15:30:39;99340.09;;;9.07;69.27
19594;BME280;9944;48.240;16.478;2023-11-21T15:34:42;99342.75;;;9.04;69.14
19594;BME280;9944;48.240;16.478;2023-11-21T15:38:46;99340.13;;;9.01;69.23
19594;BME280;9944;48.240;16.478;2023-11-21T15:42:49;99347.19;;;8.93;69.35
19594;BME280;9944;48.240;16.478;2023-11-21T15:46:54;99356.84;;;8.89;69.46
19594;BME280;9944;48.240;16.478;2023-11-21T15:50:57;99358.63;;;8.84;69.76
19594;BME280;9944;48.240;16.478;2023-11-21T15:55:01;99362.16;;;8.79;70.05
19594;BME280;9944;48.240;16.478;2023-11-21T15:59:04;99366.56;;;8.77;70.17
19594;BME280;9944;48.240;16.478;2023-11-21T16:03:10;99370.97;;;8.74;70.37
19594;BME280;9944;48.240;16.478;2023-11-21T16:07:14;99379.72;;;8.72;70.84
19594;BME280;9944;48.240;16.478;2023-11-21T16:11:17;99383.25;;;8.68;71.03
19594;BME280;9944;48.240;16.478;2023-11-21T16:15:20;99395.56;;;8.63;71.55
19594;BME280;9944;48.240;16.478;2023-11-21T16:19:25;99394.69;;;8.61;71.61
19594;BME280;9944;48.240;16.478;2023-11-21T16:23:28;99395.56;;;8.60;72.14
19594;BME280;9944;48.240;16.478;2023-11-21T16:27:33;99406.94;;;8.60;72.61
19594;BME280;9944;48.240;16.478;2023-11-21T16:31:36;99408.72;;;8.61;72.94
19594;BME280;9944;48.240;16.478;2023-11-21T16:35:41;99412.22;;;8.59;73.12
19594;BME280;9944;48.240;16.478;2023-11-21T16:39:45;99408.72;;;8.58;73.55
19594;BME280;9944;48.240;16.478;2023-11-21T16:43:49;99413.97;;;8.57;74.05
19594;BME280;9944;48.240;16.478;2023-11-21T16:47:53;99423.63;;;8.58;74.15
19594;BME280;9944;48.240;16.478;2023-11-21T16:51:58;99435.00;;;8.55;74.16
19594;BME280;9944;48.240;16.478;2023-11-21T16:56:02;99444.66;;;8.48;74.68
19594;BME280;9944;48.240;16.478;2023-11-21T17:00:05;99449.06;;;8.43;74.64
19594;BME280;9944;48.240;16.478;2023-11-21T17:04:13;99451.72;;;8.40;74.83
19594;BME280;9944;48.240;16.478;2023-11-21T17:08:19;99456.97;;;8.37;75.14
19594;BME280;9944;48.240;16.478;2023-11-21T17:12:22;99451.69;;;8.34;75.12
19594;BME280;9944;48.240;16.478;2023-11-21T17:16:25;99451.66;;;8.31;75.00
19594;BME280;9944;48.240;16.478;2023-11-21T17:20:29;99467.44;;;8.31;75.12
19594;BME280;9944;48.240;16.478;2023-11-21T17:24:33;99464.84;;;8.32;75.02
19594;BME280;9944;48.240;16.478;2023-11-21T17:28:38;99461.31;;;8.30;75.17
19594;BME280;9944;48.240;16.478;2023-11-21T17:32:41;99459.53;;;8.29;75.02
19594;BME280;9944;48.240;16.478;2023-11-21T17:36:46;99458.69;;;8.30;75.38
19594;BME280;9944;48.240;16.478;2023-11-21T17:40:51;99470.97;;;8.30;75.47
19594;BME280;9944;48.240;16.478;2023-11-21T17:44:54;99468.34;;;8.30;75.07
19594;BME280;9944;48.240;16.478;2023-11-21T17:48:58;99463.06;;;8.30;75.45
19594;BME280;9944;48.240;16.478;2023-11-21T17:53:01;99470.97;;;8.30;75.29
19594;BME280;9944;48.240;16.478;2023-11-21T17:57:07;99463.94;;;8.29;75.38
19594;BME280;9944;48.240;16.478;2023-11-21T18:01:11;99467.47;;;8.28;75.40
19594;BME280;9944;48.240;16.478;2023-11-21T18:05:15;99474.44;;;8.29;75.60
19594;BME280;9944;48.240;16.478;2023-11-21T18:09:19;99474.44;;;8.29;75.34
19594;BME280;9944;48.240;16.478;2023-11-21T18:13:24;99481.47;;;8.27;75.02
19594;BME280;9944;48.240;16.478;2023-11-21T18:17:27;99489.38;;;8.27;75.28
19594;BME280;9944;48.240;16.478;2023-11-21T18:21:30;99484.97;;;8.26;75.36
19594;BME280;9944;48.240;16.478;2023-11-21T18:25:33;99491.13;;;8.26;75.20
19594;BME280;9944;48.240;16.478;2023-11-21T18:29:38;99497.25;;;8.28;75.26
19594;BME280;9944;48.240;16.478;2023-11-21T18:33:41;99502.50;;;8.27;74.87
19594;BME280;9944;48.240;16.478;2023-11-21T18:37:45;99509.53;;;8.23;75.17
19594;BME280;9944;48.240;16.478;2023-11-21T18:41:49;99511.28;;;8.23;75.07
19594;BME280;9944;48.240;16.478;2023-11-21T18:45:55;99505.13;;;8.22;75.27
19594;BME280;9944;48.240;16.478;2023-11-21T18:49:58;99508.66;;;8.21;75.16
19594;BME280;9944;48.240;16.478;2023-11-21T18:54:01;99507.75;;;8.21;74.80
19594;BME280;9944;48.240;16.478;2023-11-21T18:58:04;99513.03;;;8.17;74.87
19594;BME280;9944;48.240;16.478;2023-11-21T19:02:09;99513.91;;;8.20;74.73
19594;BME280;9944;48.240;16.478;2023-11-21T19:06:15;99506.88;;;8.15;74.58
19594;BME280;9944;48.240;16.478;2023-11-21T19:10:18;99512.13;;;8.17;74.31
19594;BME280;9944;48.240;16.478;2023-11-21T19:14:23;99511.28;;;8.10;74.16
19594;BME280;9944;48.240;16.478;2023-11-21T19:18:28;99515.63;;;8.07;74.42
19594;BME280;9944;48.240;16.478;2023-11-21T19:22:31;99517.38;;;8.06;74.38
19594;BME280;9944;48.240;16.478;2023-11-21T19:26:36;99522.66;;;8.02;74.26
19594;BME280;9944;48.240;16.478;2023-11-21T19:30:39;99520.88;;;7.97;74.13
19594;BME280;9944;48.240;16.478;2023-11-21T19:34:45;99524.38;;;7.95;74.40
19594;BME280;9944;48.240;16.478;2023-11-21T19:38:48;99535.75;;;7.91;74.13
19594;BME280;9944;48.240;16.478;2023-11-21T19:42:53;99530.47;;;7.85;74.02
19594;BME280;9944;48.240;16.478;2023-11-21T19:46:56;99542.72;;;7.79;74.08
19594;BME280;9944;48.240;16.478;2023-11-21T19:51:01;99541.84;;;7.77;74.06
19594;BME280;9944;48.240;16.478;2023-11-21T19:55:06;99542.69;;;7.73;73.95
19594;BME280;9944;48.240;16.478;2023-11-21T19:59:10;99547.94;;;7.70;74.09
19594;BME280;9944;48.240;16.478;2023-11-21T20:03:15;99551.44;;;7.66;74.18
19594;BME280;9944;48.240;16.478;2023-11-21T20:07:22;99554.91;;;7.62;74.24
19594;BME280;9944;48.240;16.478;2023-11-21T20:11:27;99561.03;;;7.61;74.26
19594;BME280;9944;48.240;16.478;2023-11-21T20:15:33;99570.66;;;7.59;74.24
19594;BME280;9944;48.240;16.478;2023-11-21T20:19:36;99565.38;;;7.56;74.36
19594;BME280;9944;48.240;16.478;2023-11-21T20:23:42;99571.50;;;7.52;74.22
19594;BME280;9944;48.240;16.478;2023-11-21T20:27:46;99575.84;;;7.47;74.32
19594;BME280;9944;48.240;16.478;2023-11-21T20:31:50;99587.22;;;7.41;74.33
19594;BME280;9944;48.240;16.478;2023-11-21T20:35:53;99589.81;;;7.36;74.55
19594;BME280;9944;48.240;16.478;2023-11-21T20:39:58;99585.41;;;7.35;74.66
19594;BME280;9944;48.240;16.478;2023-11-21T20:44:02;99593.28;;;7.35;74.72
19594;BME280;9944;48.240;16.478;2023-11-21T20:48:07;99588.91;;;7.31;74.81
19594;BME280;9944;48.240;16.478;2023-11-21T20:52:11;99588.03;;;7.32;75.13
19594;BME280;9944;48.240;16.478;2023-11-21T20:56:16;99589.78;;;7.33;75.12
19594;BME280;9944;48.240;16.478;2023-11-21T21:00:20;99596.75;;;7.28;75.06
19594;BME280;9944;48.240;16.478;2023-11-21T21:04:24;99606.38;;;7.26;75.53
19594;BME280;9944;48.240;16.478;2023-11-21T21:08:27;99607.22;;;7.25;75.11
19594;BME280;9944;48.240;16.478;2023-11-21T21:12:32;99611.59;;;7.24;75.52
19594;BME280;9944;48.240;16.478;2023-11-21T21:16:39;99619.47;;;7.23;75.52
19594;BME280;9944;48.240;16.478;2023-11-21T21:20:44;99617.69;;;7.19;75.50
19594;BME280;9944;48.240;16.478;2023-11-21T21:24:47;99618.53;;;7.16;75.58
19594;BME280;9944;48.240;16.478;2023-11-21T21:28:52;99620.31;;;7.17;75.53
19594;BME280;9944;48.240;16.478;2023-11-21T21:32:55;99628.19;;;7.19;75.82
19594;BME280;9944;48.240;16.478;2023-11-21T21:37:02;99633.47;;;7.20;75.62
19594;BME280;9944;48.240;16.478;2023-11-21T21:41:07;99636.13;;;7.23;75.69
19594;BME280;9944;48.240;16.478;2023-11-21T21:45:13;99635.22;;;7.24;75.86
19594;BME280;9944;48.240;16.478;2023-11-21T21:49:16;99641.34;;;7.25;75.89
19594;BME280;9944;48.240;16.478;2023-11-21T21:53:20;99643.97;;;7.25;75.79